Time;durP1;ratioP1;P1;durP2;ratioP2;P2;SDS_P1;SDS_P2;PMS_P1;PMS_P2;Temp;Humidity;BMP_temperature;BMP_pressure;BME280_temperature;BME280_humidity;BME280_pressure;Samples;Min_cycle;Max_cycle;Signal;HPM_P1;HPM_P2
2023/05/17 00:00:37;;;;;;;0.43;0.43;;;;;;;14.33;100.00;98908.44;5051098;28;20257;-60
2023/05/17 00:03:04;;;;;;;0.50;0.50;;;;;;;14.38;100.00;98910.78;5050816;28;20335;-59
2023/05/17 00:05:32;;;;;;;0.37;0.37;;;;;;;14.37;100.00;98909.94;5051306;28;20733;-60
2023/05/17 00:07:58;;;;;;;2.23;0.80;;;;;;;14.43;100.00;98901.03;5051550;28;20207;-60
2023/05/17 00:10:25;;;;;;;0.43;0.43;;;;;;;14.33;100.00;98913.59;5051647;28;20615;-59
2023/05/17 00:12:52;;;;;;;0.50;0.50;;;;;;;14.22;100.00;98910.72;5051384;28;20203;-60
2023/05/17 00:15:18;;;;;;;0.50;0.50;;;;;;;14.23;100.00;98908.97;5050614;28;20254;-60
2023/05/17 00:17:45;;;;;;;0.40;0.40;;;;;;;14.22;100.00;98910.72;5050779;28;20260;-59
2023/05/17 00:20:12;;;;;;;0.73;0.73;;;;;;;14.25;100.00;98904.59;5050660;28;20206;-59
2023/05/17 00:22:42;;;;;;;0.30;0.30;;;;;;;14.14;100.00;98897.41;5050315;28;20264;-60
2023/05/17 00:25:09;;;;;;;0.50;0.50;;;;;;;14.21;100.00;98903.91;5050486;28;20712;-60
2023/05/17 00:27:35;;;;;;;0.50;0.50;;;;;;;14.22;100.00;98905.56;5051071;28;20279;-60
2023/05/17 00:30:02;;;;;;;0.57;0.57;;;;;;;14.24;100.00;98918.38;5052211;28;20207;-60
2023/05/17 00:32:29;;;;;;;0.47;0.47;;;;;;;14.22;100.00;98921.03;5050078;28;20246;-60
2023/05/17 00:34:56;;;;;;;0.50;0.50;;;;;;;14.25;100.00;98917.47;5050704;28;20229;-60
2023/05/17 00:37:22;;;;;;;0.60;0.60;;;;;;;14.28;100.00;98907.00;5050719;28;20643;-59
2023/05/17 00:39:51;;;;;;;0.50;0.50;;;;;;;14.23;100.00;98917.53;5050535;28;20264;-60
2023/05/17 00:42:18;;;;;;;0.67;0.67;;;;;;;14.25;100.00;98920.84;5049988;28;20219;-61
2023/05/17 00:44:48;;;;;;;0.80;0.80;;;;;;;14.14;100.00;98912.88;5050326;28;20219;-59
2023/05/17 00:47:15;;;;;;;0.40;0.40;;;;;;;14.17;100.00;98903.22;5049004;28;20203;-59
2023/05/17 00:49:41;;;;;;;0.50;0.50;;;;;;;14.10;100.00;98904.47;5051121;28;20205;-60
2023/05/17 00:52:08;;;;;;;0.50;0.50;;;;;;;14.20;100.00;98889.34;5049587;28;20211;-60
2023/05/17 00:54:35;;;;;;;0.33;0.33;;;;;;;14.25;100.00;98879.59;5049050;28;20229;-60
2023/05/17 00:57:04;;;;;;;0.50;0.50;;;;;;;14.20;100.00;98871.28;5050031;28;20638;-59
2023/05/17 00:59:32;;;;;;;0.40;0.40;;;;;;;14.18;100.00;98878.28;5049372;28;20198;-60
2023/05/17 01:01:59;;;;;;;0.40;0.40;;;;;;;14.20;100.00;98886.75;5050252;28;20200;-60
2023/05/17 01:04:25;;;;;;;0.30;0.30;;;;;;;14.29;100.00;98891.44;5049109;28;20216;-60
2023/05/17 01:06:52;;;;;;;0.60;0.60;;;;;;;14.36;100.00;98890.22;5050064;28;20205;-60
2023/05/17 01:09:21;;;;;;;0.70;0.70;;;;;;;14.41;100.00;98888.22;5049076;28;20290;-60
2023/05/17 01:11:56;;;;;;;0.50;0.50;;;;;;;14.50;100.00;98889.50;5050058;28;20201;-60
2023/05/17 01:14:37;;;;;;;0.47;0.47;;;;;;;14.41;100.00;98895.94;5049449;28;20256;-60
2023/05/17 01:17:10;;;;;;;0.50;0.50;;;;;;;14.32;100.00;98885.25;5049517;28;20210;-60
2023/05/17 01:19:52;;;;;;;0.40;0.40;;;;;;;14.33;100.00;98880.06;5049558;28;20206;-60
2023/05/17 01:22:31;;;;;;;0.40;0.40;;;;;;;14.43;100.00;98889.00;5048968;28;20197;-60
2023/05/17 01:25:11;;;;;;;0.50;0.50;;;;;;;14.39;100.00;98897.78;5049342;28;20293;-60
2023/05/17 01:27:42;;;;;;;0.33;0.33;;;;;;;14.45;100.00;98894.03;5049151;28;20224;-60
2023/05/17 01:30:13;;;;;;;0.50;0.50;;;;;;;14.52;100.00;98885.91;5047850;28;20228;-60
2023/05/17 01:32:42;;;;;;;0.50;0.50;;;;;;;14.57;100.00;98886.47;5049140;28;20195;-59
2023/05/17 01:35:11;;;;;;;0.60;0.60;;;;;;;14.62;100.00;98884.50;5047935;28;20203;-60
2023/05/17 01:37:38;;;;;;;0.40;0.40;;;;;;;14.64;100.00;98882.66;5047866;28;20643;-59
2023/05/17 01:40:08;;;;;;;0.53;0.53;;;;;;;14.48;100.00;98850.88;5049548;28;20215;-61
2023/05/17 01:42:40;;;;;;;0.40;0.40;;;;;;;14.57;100.00;98865.84;5049444;28;20576;-59
2023/05/17 01:45:13;;;;;;;0.50;0.50;;;;;;;14.56;100.00;98877.09;5048449;28;20638;-59
2023/05/17 01:47:45;;;;;;;0.50;0.50;;;;;;;14.50;100.00;98864.53;5049526;28;20252;-60
2023/05/17 01:50:16;;;;;;;0.50;0.50;;;;;;;14.61;100.00;98877.66;5048924;28;20737;-60
2023/05/17 01:52:50;;;;;;;0.40;0.40;;;;;;;14.65;100.00;98884.31;5048828;28;20205;-60
2023/05/17 01:55:24;;;;;;;0.60;0.60;;;;;;;14.71;100.00;98878.81;5049133;28;20665;-60
2023/05/17 01:57:55;;;;;;;0.50;0.50;;;;;;;14.65;100.00;98868.00;5049152;28;20193;-60
2023/05/17 02:00:23;;;;;;;0.50;0.50;;;;;;;14.76;100.00;98877.75;5048924;28;20266;-59
2023/05/17 02:02:50;;;;;;;0.70;0.70;;;;;;;14.76;100.00;98876.00;5049277;28;20265;-59
2023/05/17 02:05:17;;;;;;;0.47;0.47;;;;;;;14.79;100.00;98875.00;5049326;28;20723;-59
2023/05/17 02:07:44;;;;;;;0.53;0.53;;;;;;;14.73;100.00;98870.19;5049547;28;20210;-59
2023/05/17 02:10:11;;;;;;;0.63;0.63;;;;;;;14.79;100.00;98887.91;5048965;28;20223;-63
2023/05/17 02:12:38;;;;;;;0.40;0.40;;;;;;;14.80;100.00;98887.78;5048962;28;20196;-60
2023/05/17 02:15:10;;;;;;;0.47;0.47;;;;;;;14.71;100.00;98873.66;5048079;28;20197;-59
2023/05/17 02:17:38;;;;;;;0.50;0.50;;;;;;;14.73;100.00;98879.56;5052357;28;20207;-59
2023/05/17 02:20:05;;;;;;;0.50;0.50;;;;;;;14.75;100.00;98886.38;5052601;28;20205;-61
2023/05/17 02:22:32;;;;;;;0.63;0.63;;;;;;;14.73;100.00;98884.72;5053316;28;20667;-59
2023/05/17 02:24:59;;;;;;;0.60;0.60;;;;;;;14.72;100.00;98884.81;5052062;28;20668;-60
2023/05/17 02:27:25;;;;;;;0.50;0.50;;;;;;;14.73;100.00;98887.31;5053341;28;20257;-60
2023/05/17 02:29:52;;;;;;;0.50;0.50;;;;;;;14.71;100.00;98886.56;5053169;28;20557;-59
2023/05/17 02:32:20;;;;;;;0.60;0.60;;;;;;;14.70;100.00;98878.94;5052890;28;20262;-60
2023/05/17 02:34:47;;;;;;;0.50;0.50;;;;;;;14.68;100.00;98883.31;5052862;28;20250;-59
2023/05/17 02:37:13;;;;;;;0.60;0.60;;;;;;;14.67;100.00;98872.16;5052439;28;20204;-60
2023/05/17 02:39:40;;;;;;;0.40;0.40;;;;;;;14.68;100.00;98879.00;5053165;28;20676;-60
2023/05/17 02:42:07;;;;;;;0.60;0.60;;;;;;;14.67;100.00;98892.78;5052742;28;20205;-60
2023/05/17 02:44:34;;;;;;;0.40;0.40;;;;;;;14.66;100.00;98906.63;5052690;28;20294;-60
2023/05/17 02:47:01;;;;;;;0.50;0.50;;;;;;;14.66;100.00;98909.22;5052953;28;20259;-59
2023/05/17 02:49:29;;;;;;;0.50;0.50;;;;;;;14.67;100.00;98895.38;5051797;28;20250;-60
2023/05/17 02:51:56;;;;;;;0.60;0.60;;;;;;;14.66;100.00;98895.47;5049243;28;20200;-60
2023/05/17 02:54:22;;;;;;;0.50;0.50;;;;;;;14.63;100.00;98898.22;5052142;28;21352;-59
2023/05/17 02:56:49;;;;;;;0.57;0.57;;;;;;;14.61;100.00;98887.97;5051299;28;20258;-60
2023/05/17 02:59:16;;;;;;;0.90;0.90;;;;;;;14.59;100.00;98883.81;5051647;28;20689;-60
2023/05/17 03:01:42;;;;;;;0.50;0.50;;;;;;;14.59;100.00;98882.09;5051732;28;20205;-59
2023/05/17 03:04:09;;;;;;;0.40;0.40;;;;;;;14.59;100.00;98884.66;5052318;28;20208;-60
2023/05/17 03:06:37;;;;;;;0.63;0.63;;;;;;;14.58;100.00;98893.31;5052164;28;20289;-60
2023/05/17 03:09:05;;;;;;;0.50;0.50;;;;;;;14.56;100.00;98895.16;5051342;28;20203;-60
2023/05/17 03:11:32;;;;;;;0.60;0.60;;;;;;;14.48;100.00;98888.72;5051793;28;20282;-59
2023/05/17 03:13:59;;;;;;;0.50;0.50;;;;;;;14.55;100.00;98892.63;5052152;28;20287;-60
2023/05/17 03:16:26;;;;;;;0.63;0.63;;;;;;;14.54;100.00;98896.97;5052012;28;20216;-60
2023/05/17 03:18:52;;;;;;;0.50;0.50;;;;;;;14.54;100.00;98902.13;5052048;28;20200;-59
2023/05/17 03:21:19;;;;;;;0.50;0.50;;;;;;;14.56;100.00;98905.47;5050439;28;20207;-59
2023/05/17 03:23:47;;;;;;;0.50;0.50;;;;;;;14.54;100.00;98907.28;5051971;28;20262;-60
2023/05/17 03:26:14;;;;;;;0.63;0.63;;;;;;;14.46;100.00;98908.63;5051981;28;20219;-59
2023/05/17 03:28:41;;;;;;;0.57;0.57;;;;;;;14.46;100.00;98913.78;5048705;28;20703;-60
2023/05/17 03:31:07;;;;;;;0.50;0.50;;;;;;;14.41;100.00;98916.59;5051186;28;20252;-59
2023/05/17 03:33:34;;;;;;;0.50;0.50;;;;;;;14.43;100.00;98925.09;5052290;28;20203;-59
2023/05/17 03:36:01;;;;;;;0.40;0.40;;;;;;;14.38;100.00;98932.22;5051693;28;20283;-59
2023/05/17 03:38:28;;;;;;;0.50;0.50;;;;;;;14.16;100.00;98931.66;5054399;28;20246;-60
2023/05/17 03:40:56;;;;;;;0.40;0.40;;;;;;;14.05;100.00;98932.22;5052312;28;20406;-60
2023/05/17 03:43:23;;;;;;;0.60;0.60;;;;;;;13.88;100.00;98927.09;5051633;28;20259;-59
2023/05/17 03:45:49;;;;;;;0.70;0.70;;;;;;;13.86;100.00;98928.09;5051762;28;20289;-60
2023/05/17 03:48:16;;;;;;;0.40;0.40;;;;;;;13.85;100.00;98929.84;5051804;28;20251;-60
2023/05/17 03:50:43;;;;;;;0.47;0.47;;;;;;;13.71;100.00;98913.41;5051445;28;20270;-59
2023/05/17 03:53:10;;;;;;;0.57;0.57;;;;;;;13.73;100.00;98937.34;5048963;28;20212;-60
2023/05/17 03:55:36;;;;;;;0.50;0.50;;;;;;;13.71;100.00;98934.84;5050934;28;20255;-60
2023/05/17 03:58:05;;;;;;;0.50;0.50;;;;;;;13.50;100.00;98916.16;5051305;28;20212;-60
2023/05/17 04:00:32;;;;;;;0.50;0.50;;;;;;;13.47;100.00;98934.31;5049385;28;20196;-60
2023/05/17 04:02:58;;;;;;;0.60;0.60;;;;;;;13.49;100.00;98934.25;5050421;28;20240;-60
2023/05/17 04:05:25;;;;;;;0.50;0.50;;;;;;;13.54;100.00;98933.09;5048493;28;20225;-60
2023/05/17 04:07:52;;;;;;;0.53;0.53;;;;;;;13.56;100.00;98933.88;5050385;28;20228;-60
2023/05/17 04:10:19;;;;;;;0.40;0.40;;;;;;;13.51;100.00;98912.66;5049730;28;20224;-61
2023/05/17 04:12:45;;;;;;;0.40;0.40;;;;;;;13.71;100.00;98928.84;5050877;28;20250;-60
2023/05/17 04:15:13;;;;;;;0.53;0.53;;;;;;;13.79;100.00;98926.72;5048262;28;20660;-61
2023/05/17 04:17:40;;;;;;;0.70;0.70;;;;;;;13.87;100.00;98930.56;5051004;28;20265;-60
2023/05/17 04:20:08;;;;;;;0.57;0.57;;;;;;;13.91;100.00;98923.53;5050426;28;20289;-60
2023/05/17 04:22:34;;;;;;;0.50;0.50;;;;;;;13.98;100.00;98942.94;5050420;28;20295;-60
2023/05/17 04:25:01;;;;;;;0.40;0.40;;;;;;;13.98;100.00;98932.63;5049528;28;20224;-61
2023/05/17 04:27:28;;;;;;;0.47;0.47;;;;;;;14.02;100.00;98945.25;5049639;28;20228;-60
2023/05/17 04:29:55;;;;;;;0.40;0.40;;;;;;;14.04;100.00;98940.03;5050108;28;20251;-60
2023/05/17 04:32:23;;;;;;;0.60;0.60;;;;;;;14.05;100.00;98945.13;5051684;28;20212;-60
2023/05/17 04:34:50;;;;;;;0.60;0.60;;;;;;;14.00;100.00;98925.63;5050077;28;20201;-61
2023/05/17 04:37:17;;;;;;;0.60;0.60;;;;;;;14.07;100.00;98932.97;5050065;28;20581;-60
2023/05/17 04:39:44;;;;;;;0.40;0.40;;;;;;;14.12;100.00;98930.13;5050250;28;20201;-60
2023/05/17 04:42:11;;;;;;;0.50;0.50;;;;;;;14.21;100.00;98929.69;5049660;28;20234;-60
2023/05/17 04:44:38;;;;;;;0.63;0.63;;;;;;;14.29;100.00;98940.41;5047174;28;20259;-60
2023/05/17 04:47:05;;;;;;;0.50;0.50;;;;;;;14.30;100.00;98918.88;5049501;28;20218;-60
2023/05/17 04:49:33;;;;;;;0.50;0.50;;;;;;;14.39;100.00;98933.91;5047753;28;20231;-60
2023/05/17 04:52:00;;;;;;;0.47;0.47;;;;;;;14.45;100.00;98923.25;5050075;28;20286;-60
2023/05/17 04:54:27;;;;;;;0.40;0.40;;;;;;;14.48;100.00;98927.41;5051290;28;20204;-60
2023/05/17 04:56:53;;;;;;;0.40;0.40;;;;;;;14.53;100.00;98936.59;5048566;28;20261;-60
2023/05/17 04:59:20;;;;;;;0.40;0.40;;;;;;;14.58;100.00;98934.59;5048148;28;20215;-60
2023/05/17 05:01:47;;;;;;;0.40;0.40;;;;;;;14.63;100.00;98937.75;5050433;28;20208;-60
2023/05/17 05:04:14;;;;;;;0.40;0.40;;;;;;;14.68;100.00;98938.34;5050894;28;20205;-60
2023/05/17 05:06:42;;;;;;;0.40;0.40;;;;;;;14.83;100.00;98953.91;5047320;28;20293;-61
2023/05/17 05:09:08;;;;;;;0.40;0.40;;;;;;;14.89;100.00;98954.41;5049436;28;20254;-60
2023/05/17 05:11:36;;;;;;;0.40;0.40;;;;;;;14.94;100.00;98951.56;5048154;28;20259;-59
2023/05/17 05:14:02;;;;;;;0.60;0.60;;;;;;;15.01;100.00;98958.06;5049533;28;20200;-61
2023/05/17 05:16:29;;;;;;;0.43;0.43;;;;;;;15.09;100.00;98961.03;5049028;28;20199;-60
2023/05/17 05:18:56;;;;;;;0.40;0.40;;;;;;;15.15;100.00;98964.09;5049233;28;20259;-59
2023/05/17 05:21:22;;;;;;;0.40;0.40;;;;;;;15.18;100.00;98956.22;5049564;28;20264;-60
2023/05/17 05:23:50;;;;;;;0.50;0.50;;;;;;;15.24;100.00;98955.03;5047400;28;20678;-61
2023/05/17 05:26:17;;;;;;;0.50;0.50;;;;;;;15.27;100.00;98962.59;5046610;28;20212;-60
2023/05/17 05:28:44;;;;;;;0.57;0.57;;;;;;;15.34;100.00;98956.19;5048975;28;20308;-61
2023/05/17 05:31:11;;;;;;;0.73;0.73;;;;;;;15.32;100.00;98958.00;5051968;28;20289;-60
2023/05/17 05:33:37;;;;;;;0.97;0.97;;;;;;;15.39;100.00;98964.50;5050120;28;20209;-59
2023/05/17 05:36:05;;;;;;;0.50;0.50;;;;;;;15.40;100.00;98961.00;5054046;28;20204;-60
2023/05/17 05:38:31;;;;;;;0.30;0.30;;;;;;;15.46;100.00;98970.97;5049067;28;20254;-60
2023/05/17 05:40:59;;;;;;;0.30;0.30;;;;;;;15.50;100.00;98972.50;5049911;28;20258;-60
2023/05/17 05:43:26;;;;;;;0.80;0.80;;;;;;;15.52;100.00;98975.81;5049257;28;20262;-60
2023/05/17 05:45:52;;;;;;;0.47;0.47;;;;;;;15.59;100.00;98977.16;5049021;28;20679;-60
2023/05/17 05:48:19;;;;;;;0.50;0.50;;;;;;;15.61;100.00;98975.28;5049619;28;20276;-60
2023/05/17 05:50:46;;;;;;;0.50;0.50;;;;;;;15.67;100.00;98974.94;5048851;28;20248;-60
2023/05/17 05:53:13;;;;;;;0.50;0.50;;;;;;;15.66;100.00;98978.47;5048945;28;20204;-61
2023/05/17 05:55:42;;;;;;;0.50;0.50;;;;;;;15.68;100.00;98974.03;5048200;28;20196;-61
2023/05/17 05:58:10;;;;;;;0.50;0.50;;;;;;;15.70;100.00;98969.59;5049202;28;20300;-60
2023/05/17 06:00:36;;;;;;;0.50;0.50;;;;;;;15.71;100.00;98979.00;5051538;28;20258;-60
2023/05/17 06:03:04;;;;;;;0.60;0.60;;;;;;;15.77;100.00;98969.25;5049304;28;20201;-61
2023/05/17 06:05:31;;;;;;;0.40;0.40;;;;;;;15.83;100.00;98968.91;5047018;28;20228;-61
2023/05/17 06:07:58;;;;;;;0.47;0.47;;;;;;;15.86;100.00;98961.81;5048932;28;20254;-60
2023/05/17 06:10:24;;;;;;;0.33;0.33;;;;;;;15.83;100.00;98961.16;5048846;28;20213;-60
2023/05/17 06:12:51;;;;;;;0.60;0.60;;;;;;;15.84;100.00;98961.03;5047846;28;20286;-59
2023/05/17 06:15:19;;;;;;;0.60;0.60;;;;;;;15.91;100.00;98961.53;5047800;28;20201;-59
2023/05/17 06:17:46;;;;;;;0.50;0.50;;;;;;;15.92;100.00;98963.19;5048216;28;20204;-59
2023/05/17 06:20:13;;;;;;;0.50;0.50;;;;;;;15.79;100.00;98926.06;5048953;28;20205;-59
2023/05/17 06:22:40;;;;;;;0.50;0.50;;;;;;;16.05;100.00;98966.72;5049399;28;20258;-59
2023/05/17 06:25:07;;;;;;;0.53;0.53;;;;;;;16.08;100.00;98969.97;5048775;28;20664;-59
2023/05/17 06:27:34;;;;;;;0.50;0.50;;;;;;;16.24;100.00;98980.22;5048477;28;20274;-59
2023/05/17 06:30:02;;;;;;;0.50;0.50;;;;;;;16.32;100.00;98972.00;5045894;28;20209;-59
2023/05/17 06:32:31;;;;;;;0.50;0.50;;;;;;;16.35;100.00;98962.28;5049070;28;20204;-59
2023/05/17 06:34:58;;;;;;;0.50;0.50;;;;;;;16.49;100.00;98970.03;5047002;28;20223;-59
2023/05/17 06:37:24;;;;;;;0.30;0.30;;;;;;;16.40;100.00;98967.19;5049598;28;20201;-60
2023/05/17 06:39:51;;;;;;;0.60;0.60;;;;;;;16.40;100.00;98962.84;5050575;28;20200;-61
2023/05/17 06:42:18;;;;;;;0.80;0.80;;;;;;;16.56;100.00;98958.44;5049888;28;20713;-59
2023/05/17 06:44:45;;;;;;;0.47;0.47;;;;;;;16.80;100.00;98958.69;5046685;28;20611;-59
2023/05/17 06:47:12;;;;;;;0.50;0.50;;;;;;;16.97;100.00;98966.19;5048650;28;20716;-59
2023/05/17 06:49:40;;;;;;;0.40;0.40;;;;;;;17.09;100.00;98985.34;5045673;28;20256;-59
2023/05/17 06:52:07;;;;;;;0.40;0.40;;;;;;;17.14;100.00;98973.75;5045723;28;20266;-60
2023/05/17 06:54:34;;;;;;;0.40;0.40;;;;;;;17.14;100.00;98962.56;5048378;28;20266;-59
2023/05/17 06:57:01;;;;;;;0.50;0.50;;;;;;;17.29;100.00;98988.31;5046301;28;20259;-60
2023/05/17 06:59:28;;;;;;;0.43;0.43;;;;;;;17.34;100.00;98998.38;5047098;28;20259;-59
2023/05/17 07:01:55;;;;;;;0.50;0.50;;;;;;;17.40;100.00;99010.94;5045589;28;20201;-59
2023/05/17 07:04:22;;;;;;;0.50;0.50;;;;;;;17.44;100.00;99006.41;5049759;28;20212;-59
2023/05/17 07:06:50;;;;;;;0.50;0.50;;;;;;;17.36;100.00;99001.69;5051907;28;20220;-59
2023/05/17 07:09:18;;;;;;;0.50;0.50;;;;;;;17.07;100.00;98982.00;5052072;28;20228;-59
2023/05/17 07:11:45;;;;;;;0.60;0.60;;;;;;;17.06;100.00;99001.06;5052050;28;20197;-59
2023/05/17 07:14:11;;;;;;;0.47;0.47;;;;;;;17.12;100.00;99016.22;5050463;28;20672;-60
2023/05/17 07:16:38;;;;;;;0.83;0.83;;;;;;;17.02;100.00;99020.31;5051963;28;20209;-58
2023/05/17 07:19:05;;;;;;;0.53;0.53;;;;;;;16.89;100.00;99015.06;5051739;28;20204;-58
2023/05/17 07:21:32;;;;;;;0.50;0.50;;;;;;;16.92;100.00;99019.22;5052212;28;20196;-59
2023/05/17 07:24:00;;;;;;;0.70;0.70;;;;;;;16.92;100.00;99016.63;5050936;28;20259;-59
2023/05/17 07:26:27;;;;;;;0.43;0.43;;;;;;;16.94;100.00;99017.34;5051116;28;20212;-59
2023/05/17 07:28:53;;;;;;;0.43;0.43;;;;;;;16.90;100.00;99013.31;5050866;28;20290;-58
2023/05/17 07:31:20;;;;;;;0.47;0.47;;;;;;;16.90;100.00;99019.28;5050270;28;20240;-60
2023/05/17 07:33:47;;;;;;;0.77;0.77;;;;;;;16.98;100.00;99018.81;5052735;28;20197;-59
2023/05/17 07:36:13;;;;;;;0.50;0.50;;;;;;;17.08;100.00;99012.16;5050695;28;20290;-60
2023/05/17 07:38:40;;;;;;;0.63;0.63;;;;;;;17.06;100.00;99012.22;5050716;28;20204;-60
2023/05/17 07:41:08;;;;;;;0.40;0.40;;;;;;;16.93;100.00;99006.16;5051403;28;20208;-60
2023/05/17 07:43:36;;;;;;;0.40;0.40;;;;;;;16.86;100.00;99001.47;5051095;28;20794;-59
2023/05/17 07:46:03;;;;;;;0.90;0.90;;;;;;;16.83;100.00;99001.66;5050835;28;20278;-59
2023/05/17 07:48:29;;;;;;;0.40;0.40;;;;;;;16.80;100.00;98997.50;5050925;28;20271;-60
2023/05/17 07:50:56;;;;;;;0.60;0.60;;;;;;;16.56;100.00;98997.25;5052762;28;20200;-59
2023/05/17 07:53:23;;;;;;;0.63;0.63;;;;;;;16.51;100.00;98999.22;5051291;28;20204;-59
2023/05/17 07:55:49;;;;;;;0.60;0.60;;;;;;;16.52;100.00;98998.31;5050996;28;20254;-60
2023/05/17 07:58:17;;;;;;;0.97;0.97;;;;;;;16.52;100.00;98990.56;5049980;28;20201;-60
2023/05/17 08:00:44;;;;;;;0.40;0.40;;;;;;;16.61;100.00;98990.03;5048639;28;20285;-61
2023/05/17 08:03:11;;;;;;;0.60;0.60;;;;;;;16.63;100.00;99003.72;5049950;28;20205;-61
2023/05/17 08:05:38;;;;;;;0.67;0.67;;;;;;;16.65;100.00;99003.59;5051344;28;20267;-63
2023/05/17 08:08:05;;;;;;;0.50;0.50;;;;;;;16.70;100.00;98999.81;5050697;28;20537;-61
2023/05/17 08:10:31;;;;;;;0.60;0.60;;;;;;;16.74;100.00;99003.88;5050844;28;20201;-63
2023/05/17 08:12:58;;;;;;;0.60;0.60;;;;;;;16.79;100.00;99014.81;5052032;28;20251;-62
2023/05/17 08:15:26;;;;;;;0.50;0.50;;;;;;;16.85;100.00;99007.56;5050942;28;20266;-67
2023/05/17 08:17:53;;;;;;;0.40;0.40;;;;;;;16.92;100.00;99009.69;5050471;28;20213;-61
2023/05/17 08:20:20;;;;;;;0.60;0.60;;;;;;;16.96;100.00;99000.81;5046413;28;20213;-61
2023/05/17 08:22:46;;;;;;;0.50;0.50;;;;;;;16.94;100.00;98981.09;5048804;28;20209;-62
2023/05/17 08:25:13;;;;;;;0.50;0.50;;;;;;;17.02;100.00;98986.66;5050965;28;20205;-62
2023/05/17 08:27:41;;;;;;;0.60;0.60;;;;;;;17.00;100.00;98981.53;5046132;28;20229;-62
2023/05/17 08:30:09;;;;;;;0.93;0.93;;;;;;;16.97;100.00;98980.91;5047604;28;20258;-62
2023/05/17 08:32:37;;;;;;;1.00;1.00;;;;;;;16.98;100.00;98983.41;5045374;28;20212;-63
2023/05/17 08:35:04;;;;;;;0.87;0.87;;;;;;;16.98;100.00;98993.75;5048569;28;20693;-62
2023/05/17 08:37:31;;;;;;;1.23;1.23;;;;;;;17.01;100.00;98992.75;5046965;28;20248;-61
2023/05/17 08:39:58;;;;;;;0.30;0.30;;;;;;;17.04;100.00;98995.13;5050332;28;20200;-63
2023/05/17 08:42:25;;;;;;;0.63;0.63;;;;;;;17.07;100.00;98984.56;5050112;28;20201;-61
2023/05/17 08:44:52;;;;;;;0.50;0.50;;;;;;;17.06;100.00;98986.34;5051042;28;20211;-62
2023/05/17 08:47:28;;;;;;;0.50;0.50;;;;;;;16.98;100.00;98998.13;5052089;28;20668;-61
2023/05/17 08:49:59;;;;;;;0.40;0.40;;;;;;;16.92;100.00;99003.69;5037684;28;20631;-61
2023/05/17 08:52:29;;;;;;;0.60;0.60;;;;;;;16.83;100.00;99006.84;5054025;28;20295;-62
2023/05/17 08:54:56;;;;;;;0.60;0.60;;;;;;;16.74;100.00;99003.88;5049317;28;20303;-62
2023/05/17 08:57:27;;;;;;;0.80;0.80;;;;;;;16.62;100.00;99011.56;5049074;28;20200;-62
2023/05/17 08:59:55;;;;;;;1.40;1.40;;;;;;;16.64;100.00;99015.72;5051262;28;20257;-62
2023/05/17 09:02:23;;;;;;;0.60;0.60;;;;;;;16.52;100.00;99023.34;5050083;28;20232;-62
2023/05/17 09:04:54;;;;;;;0.50;0.50;;;;;;;16.30;100.00;99010.88;5052358;28;20635;-62
2023/05/17 09:07:22;;;;;;;0.40;0.40;;;;;;;16.20;100.00;99012.34;5049794;28;20293;-62
2023/05/17 09:09:52;;;;;;;1.20;1.20;;;;;;;16.06;100.00;99017.50;5048830;28;20200;-62
2023/05/17 09:12:19;;;;;;;0.70;0.70;;;;;;;15.91;100.00;99023.56;5051755;28;20295;-63
2023/05/17 09:14:46;;;;;;;0.40;0.40;;;;;;;15.84;100.00;99024.81;5049932;28;20757;-62
2023/05/17 09:17:14;;;;;;;0.60;0.60;;;;;;;15.74;100.00;99027.94;5046593;28;20192;-61
2023/05/17 09:19:44;;;;;;;0.40;0.40;;;;;;;15.67;100.00;99021.44;5046073;28;20287;-61
2023/05/17 09:22:13;;;;;;;0.60;0.60;;;;;;;15.66;100.00;99024.97;5045471;28;20209;-62
2023/05/17 09:24:42;;;;;;;0.97;0.97;;;;;;;15.10;100.00;98916.22;5035315;28;20579;-61
2023/05/17 09:27:14;;;;;;;0.50;0.50;;;;;;;15.54;100.00;98999.00;5045102;28;20658;-61
2023/05/17 09:29:41;;;;;;;0.60;0.60;;;;;;;15.63;100.00;98990.72;5043777;28;20291;-61
2023/05/17 09:32:15;;;;;;;0.50;0.50;;;;;;;15.69;100.00;98988.63;5048612;28;20584;-61
2023/05/17 09:34:42;;;;;;;0.73;0.73;;;;;;;15.79;100.00;98978.59;5049089;28;20200;-61
2023/05/17 09:37:13;;;;;;;0.50;0.50;;;;;;;15.85;100.00;98972.22;5049065;28;20565;-67
2023/05/17 09:39:43;;;;;;;0.57;0.57;;;;;;;15.91;100.00;98983.03;5048036;28;20224;-61
2023/05/17 09:42:10;;;;;;;0.80;0.80;;;;;;;15.88;100.00;98983.22;5046774;28;20219;-60
2023/05/17 09:44:47;;;;;;;0.50;0.50;;;;;;;15.88;100.00;98992.72;5044896;28;20735;-60
2023/05/17 09:47:23;;;;;;;0.63;0.63;;;;;;;15.91;100.00;98990.78;5046382;28;20220;-61
2023/05/17 09:49:50;;;;;;;0.97;0.97;;;;;;;15.93;100.00;98988.13;5046709;28;20735;-60
2023/05/17 09:52:19;;;;;;;0.50;0.50;;;;;;;15.81;100.00;98983.66;5047394;28;20271;-60
2023/05/17 09:54:54;;;;;;;0.40;0.40;;;;;;;15.69;100.00;98988.63;5049829;28;20224;-60
2023/05/17 09:57:21;;;;;;;0.70;0.70;;;;;;;15.68;100.00;98986.94;5047199;28;20208;-60
2023/05/17 09:59:48;;;;;;;0.67;0.67;;;;;;;15.45;100.00;98960.72;5047861;28;20256;-59
2023/05/17 10:02:21;;;;;;;1.27;0.80;;;;;;;15.55;100.00;98980.81;5049179;28;20238;-59
2023/05/17 10:04:50;;;;;;;0.50;0.50;;;;;;;15.58;100.00;98980.63;5047254;28;20232;-61
2023/05/17 10:07:20;;;;;;;0.93;0.93;;;;;;;15.58;100.00;98980.63;5047910;28;20600;-60
2023/05/17 10:09:48;;;;;;;1.33;1.33;;;;;;;15.48;100.00;98979.50;5049347;28;20734;-60
2023/05/17 10:12:19;;;;;;;1.23;1.23;;;;;;;15.47;100.00;98977.81;5047329;28;20227;-60
2023/05/17 10:14:47;;;;;;;0.57;0.57;;;;;;;15.52;100.00;98981.00;5045688;28;20758;-59
2023/05/17 10:17:15;;;;;;;0.60;0.60;;;;;;;15.59;100.00;98977.16;5046237;28;20208;-61
2023/05/17 10:19:43;;;;;;;0.50;0.50;;;;;;;15.74;100.00;98973.66;5048193;28;20686;-60
2023/05/17 10:22:11;;;;;;;0.93;0.93;;;;;;;15.81;100.00;98971.56;5045717;28;20591;-60
2023/05/17 10:24:38;;;;;;;1.03;1.03;;;;;;;15.92;100.00;98973.53;5047786;28;20207;-61
2023/05/17 10:27:06;;;;;;;0.60;0.60;;;;;;;16.02;100.00;98972.91;5045879;28;20711;-60
2023/05/17 10:29:36;;;;;;;0.43;0.43;;;;;;;16.08;100.00;98971.72;5044415;28;20299;-60
2023/05/17 10:32:06;;;;;;;0.50;0.50;;;;;;;16.19;100.00;98961.53;5047801;28;20220;-60
2023/05/17 10:34:34;;;;;;;0.57;0.57;;;;;;;16.20;100.00;98956.28;5042918;28;20239;-60
2023/05/17 10:37:02;;;;;;;0.60;0.60;;;;;;;16.33;100.00;98969.31;5045547;28;20200;-61
2023/05/17 10:39:30;;;;;;;0.50;0.50;;;;;;;16.42;100.00;98968.75;5047536;28;20197;-60
2023/05/17 10:41:59;;;;;;;0.80;0.80;;;;;;;16.51;100.00;98959.63;5051098;28;20219;-60
2023/05/17 10:44:27;;;;;;;0.53;0.53;;;;;;;16.56;100.00;98953.25;5052779;28;20201;-60
2023/05/17 10:46:56;;;;;;;0.50;0.50;;;;;;;16.61;100.00;98958.97;5053164;28;20657;-61
2023/05/17 10:49:27;;;;;;;0.50;0.50;;;;;;;16.65;100.00;98965.63;5052856;28;20201;-59
2023/05/17 10:51:54;;;;;;;0.70;0.70;;;;;;;16.70;100.00;98968.75;5051972;28;20228;-60
2023/05/17 10:54:21;;;;;;;0.50;0.50;;;;;;;16.71;100.00;98967.00;5052412;28;20201;-60
2023/05/17 10:56:48;;;;;;;0.50;0.50;;;;;;;16.65;100.00;98968.22;5055617;28;20565;-60
2023/05/17 10:59:21;;;;;;;0.50;0.50;;;;;;;16.70;100.00;98968.75;5053348;28;20266;-59
2023/05/17 11:01:58;;;;;;;0.50;0.50;;;;;;;16.75;100.00;98971.06;5053604;28;20201;-59
2023/05/17 11:04:26;;;;;;;0.70;0.70;;;;;;;16.79;100.00;98978.56;5051219;28;20457;-60
2023/05/17 11:06:56;;;;;;;0.60;0.60;;;;;;;16.80;100.00;98969.84;5053223;28;20199;-59
2023/05/17 11:09:23;;;;;;;0.57;0.57;;;;;;;16.84;100.00;98969.66;5051396;28;20212;-60
2023/05/17 11:12:09;;;;;;;0.97;0.97;;;;;;;16.87;100.00;98964.28;5052331;28;20211;-59
2023/05/17 11:14:55;;;;;;;0.50;0.50;;;;;;;16.89;100.00;98957.25;5050764;28;20189;-65
2023/05/17 11:17:25;;;;;;;0.80;0.80;;;;;;;17.04;100.00;98971.81;5050780;28;20439;-65
2023/05/17 11:20:08;;;;;;;0.53;0.53;;;;;;;17.17;100.00;98976.13;5052815;28;20215;-65
2023/05/17 11:22:41;;;;;;;0.40;0.40;;;;;;;17.22;100.00;98975.84;5052977;28;20227;-65
2023/05/17 11:25:09;;;;;;;0.33;0.33;;;;;;;17.19;100.00;98960.47;5052156;28;20208;-65
2023/05/17 11:27:43;;;;;;;0.60;0.60;;;;;;;17.20;100.00;98956.97;5051942;28;20230;-65